Time;durP1;ratioP1;P1;durP2;ratioP2;P2;SDS_P1;SDS_P2;PMS_P1;PMS_P2;Temp;Humidity;BMP_temperature;BMP_pressure;BME280_temperature;BME280_humidity;BME280_pressure;Samples;Min_cycle;Max_cycle;Signal;HPM_P1;HPM_P2
2023/10/11 00:00:35;;;;;;;10.20;4.68;;;14.80;92.30;;;;;;4986255;28;20066;-74
2023/10/11 00:03:17;;;;;;;10.95;4.68;;;14.80;92.10;;;;;;4986540;28;20077;-73
2023/10/11 00:05:45;;;;;;;9.65;5.10;;;14.80;92.10;;;;;;4981749;28;20653;-73
2023/10/11 00:08:19;;;;;;;12.18;4.35;;;14.90;92.10;;;;;;4981653;28;20030;-72
2023/10/11 00:10:59;;;;;;;14.63;5.50;;;14.80;91.90;;;;;;4988847;28;20030;-73
2023/10/11 00:13:32;;;;;;;9.10;4.50;;;14.90;92.20;;;;;;4991674;28;20467;-72
2023/10/11 00:16:06;;;;;;;8.80;4.72;;;14.90;92.00;;;;;;4986287;28;20093;-72
2023/10/11 00:18:34;;;;;;;8.73;4.75;;;14.90;91.90;;;;;;4984841;28;20042;-72
2023/10/11 00:21:02;;;;;;;9.27;4.75;;;15.00;91.30;;;;;;4989601;28;20045;-75
2023/10/11 00:23:31;;;;;;;9.07;4.50;;;15.00;91.30;;;;;;4985451;28;20045;-72
2023/10/11 00:26:01;;;;;;;10.18;4.47;;;15.00;91.20;;;;;;4992320;28;20050;-73
2023/10/11 00:28:31;;;;;;;10.32;4.22;;;15.00;91.50;;;;;;4984803;28;20131;-72
2023/10/11 00:31:00;;;;;;;11.38;4.10;;;14.80;92.00;;;;;;4989088;28;20034;-73
2023/10/11 00:33:26;;;;;;;10.23;4.10;;;14.70;92.10;;;;;;4980654;28;20124;-73
2023/10/11 00:35:52;;;;;;;8.57;4.05;;;14.60;92.10;;;;;;4986564;28;20030;-72
2023/10/11 00:38:20;;;;;;;8.27;3.65;;;14.80;91.90;;;;;;4989096;28;20041;-72
2023/10/11 00:41:12;;;;;;;9.18;4.47;;;14.70;92.00;;;;;;4989050;28;20105;-73
2023/10/11 00:43:55;;;;;;;12.18;4.88;;;14.80;91.60;;;;;;4989171;28;20038;-72
2023/10/11 00:46:23;;;;;;;12.05;4.82;;;15.00;91.20;;;;;;4982986;28;20030;-72
2023/10/11 00:49:00;;;;;;;9.00;4.53;;;15.10;90.80;;;;;;4981726;28;20039;-73
2023/10/11 00:51:30;;;;;;;9.75;5.18;;;15.00;91.10;;;;;;4984014;28;20125;-73
2023/10/11 00:53:57;;;;;;;13.57;4.78;;;15.00;91.00;;;;;;5000366;28;20132;-73
2023/10/11 00:56:31;;;;;;;9.00;4.40;;;15.10;90.40;;;;;;4987771;28;20057;-72
2023/10/11 00:59:01;;;;;;;7.55;3.67;;;15.10;90.50;;;;;;4984315;28;20038;-73
2023/10/11 01:01:26;;;;;;;7.10;3.80;;;15.20;90.30;;;;;;4992172;28;20032;-73
2023/10/11 01:03:53;;;;;;;10.35;4.10;;;15.40;89.60;;;;;;4978492;28;20487;-73
2023/10/11 01:06:19;;;;;;;11.05;4.15;;;15.40;89.60;;;;;;4988881;28;20387;-72
2023/10/11 01:08:48;;;;;;;9.82;4.30;;;15.40;89.50;;;;;;4986603;28;20042;-74
2023/10/11 01:11:14;;;;;;;7.28;3.80;;;15.50;89.10;;;;;;4991077;28;20037;-73
2023/10/11 01:13:41;;;;;;;7.97;3.85;;;15.50;89.00;;;;;;4988914;28;20627;-72
2023/10/11 01:16:10;;;;;;;7.13;3.67;;;15.50;88.90;;;;;;4979332;28;20400;-73
2023/10/11 01:18:37;;;;;;;10.00;3.83;;;15.50;88.90;;;;;;4986843;28;20403;-73
2023/10/11 01:21:04;;;;;;;7.25;3.42;;;15.50;88.70;;;;;;4987546;28;20169;-73
2023/10/11 01:23:29;;;;;;;7.38;3.08;;;15.50;88.60;;;;;;4982519;28;20027;-73
2023/10/11 01:25:58;;;;;;;11.18;4.55;;;15.50;89.00;;;;;;4989589;28;20189;-73
2023/10/11 01:28:23;;;;;;;14.00;3.85;;;15.50;88.80;;;;;;4983245;28;20173;-73
2023/10/11 01:30:51;;;;;;;6.95;3.65;;;15.50;88.70;;;;;;4981789;28;20110;-73
2023/10/11 01:33:18;;;;;;;8.52;3.78;;;15.60;88.50;;;;;;4980971;28;20129;-73
2023/10/11 01:35:44;;;;;;;9.20;3.97;;;15.50;88.70;;;;;;4984219;28;20030;-74
2023/10/11 01:38:10;;;;;;;9.52;3.15;;;15.40;89.00;;;;;;4985539;28;20116;-74
2023/10/11 01:40:39;;;;;;;9.43;3.63;;;15.40;88.80;;;;;;4988753;28;20026;-72
2023/10/11 01:43:05;;;;;;;10.18;3.35;;;15.40;89.20;;;;;;4989538;28;20491;-73
2023/10/11 01:45:32;;;;;;;10.05;3.72;;;15.40;89.00;;;;;;4988348;28;20484;-72
2023/10/11 01:47:58;;;;;;;8.25;3.95;;;15.40;89.00;;;;;;4989237;28;20042;-72
2023/10/11 01:50:24;;;;;;;8.27;3.95;;;15.40;89.00;;;;;;4987553;28;20034;-72
2023/10/11 01:52:51;;;;;;;10.15;3.70;;;15.30;89.10;;;;;;4977973;28;20030;-74
2023/10/11 01:55:17;;;;;;;7.43;3.80;;;15.40;89.10;;;;;;4987585;28;20053;-73
2023/10/11 01:57:45;;;;;;;12.05;4.03;;;15.30;89.30;;;;;;4984698;28;20033;-73
2023/10/11 02:00:15;;;;;;;7.78;3.88;;;15.30;89.60;;;;;;4981089;28;20027;-72
2023/10/11 02:02:55;;;;;;;8.70;4.00;;;15.30;89.50;;;;;;4983941;28;20031;-72
2023/10/11 02:05:24;;;;;;;9.40;3.83;;;15.20;89.70;;;;;;4984748;28;20038;-72
2023/10/11 02:07:50;;;;;;;9.32;3.67;;;15.20;89.50;;;;;;4981345;28;20035;-72
2023/10/11 02:10:25;;;;;;;7.55;3.75;;;15.30;89.60;;;;;;4982242;28;20674;-76
2023/10/11 02:12:52;;;;;;;11.10;4.20;;;15.30;89.50;;;;;;4975857;28;20023;-72
2023/10/11 02:15:21;;;;;;;10.70;3.70;;;15.20;89.70;;;;;;4978845;28;20057;-73
2023/10/11 02:17:51;;;;;;;9.65;3.92;;;15.20;89.90;;;;;;4987963;28;20065;-73
2023/10/11 02:20:21;;;;;;;9.15;3.70;;;15.20;89.80;;;;;;4986056;28;20027;-73
2023/10/11 02:22:51;;;;;;;9.95;4.30;;;15.20;89.80;;;;;;4985124;28;20042;-73
2023/10/11 02:25:24;;;;;;;9.40;4.15;;;15.10;90.10;;;;;;4988456;28;20078;-73
2023/10/11 02:27:53;;;;;;;10.23;3.83;;;15.10;89.90;;;;;;4988371;28;20539;-73
2023/10/11 02:30:24;;;;;;;8.73;4.25;;;15.10;90.20;;;;;;4986736;28;20029;-73
2023/10/11 02:32:59;;;;;;;10.65;4.43;;;15.10;90.10;;;;;;4983570;28;20395;-73
2023/10/11 02:35:29;;;;;;;9.52;4.35;;;15.10;90.20;;;;;;4984216;28;20494;-72
2023/10/11 02:37:59;;;;;;;9.50;4.45;;;15.10;90.20;;;;;;4988873;28;20092;-73
2023/10/11 02:40:25;;;;;;;10.23;4.40;;;15.10;90.50;;;;;;4984749;28;20443;-72
2023/10/11 02:42:55;;;;;;;7.43;4.18;;;15.00;90.50;;;;;;4992302;28;20031;-73
2023/10/11 02:45:24;;;;;;;8.65;4.60;;;15.10;90.50;;;;;;4988058;28;20394;-72
2023/10/11 02:47:50;;;;;;;9.90;4.38;;;15.00;90.70;;;;;;4990289;28;20043;-73
2023/10/11 02:50:17;;;;;;;13.52;4.65;;;15.00;90.70;;;;;;4989521;28;20033;-73
2023/10/11 02:52:43;;;;;;;8.57;4.07;;;15.00;90.80;;;;;;4994049;28;20026;-73
2023/10/11 02:57:44;;;;;;;11.55;4.57;;;15.00;91.00;;;;;;4994636;28;20487;-73
2023/10/11 03:00:21;;;;;;;9.07;4.13;;;14.90;91.20;;;;;;4980845;28;20060;-73
2023/10/11 03:03:00;;;;;;;11.55;5.07;;;14.90;91.40;;;;;;4991099;28;20113;-74
2023/10/11 03:05:29;;;;;;;10.13;4.35;;;15.00;91.20;;;;;;4990824;28;20034;-72
2023/10/11 03:08:14;;;;;;;8.18;4.45;;;15.00;91.20;;;;;;4987888;28;20031;-73
2023/10/11 03:10:46;;;;;;;11.32;4.82;;;15.00;91.40;;;;;;4994545;28;20029;-73
2023/10/11 03:13:19;;;;;;;12.52;4.68;;;14.90;91.50;;;;;;4989340;28;20427;-76
2023/10/11 03:15:46;;;;;;;10.70;4.40;;;15.00;91.30;;;;;;4987529;28;20026;-73
2023/10/11 03:18:12;;;;;;;11.70;4.30;;;15.00;91.30;;;;;;4988193;28;20034;-73
2023/10/11 03:20:38;;;;;;;9.50;4.47;;;15.00;91.30;;;;;;4990121;28;20087;-73
2023/10/11 03:23:13;;;;;;;7.85;4.10;;;15.00;91.30;;;;;;4988461;28;20037;-72
2023/10/11 03:25:44;;;;;;;8.35;3.95;;;15.00;91.40;;;;;;4993164;28;20051;-73
2023/10/11 03:28:13;;;;;;;9.10;4.72;;;14.90;91.50;;;;;;4985348;28;20058;-73
2023/10/11 03:30:39;;;;;;;9.13;4.30;;;15.00;91.40;;;;;;4983249;28;20022;-73
2023/10/11 03:33:07;;;;;;;9.88;5.13;;;15.00;91.50;;;;;;4992053;28;20281;-73
2023/10/11 03:35:38;;;;;;;9.88;4.85;;;15.00;91.30;;;;;;4987971;28;20031;-72
2023/10/11 03:38:16;;;;;;;10.35;5.38;;;15.00;91.30;;;;;;4991458;28;20565;-76
2023/10/11 03:40:54;;;;;;;9.70;4.57;;;15.00;91.50;;;;;;4992014;28;20574;-72
2023/10/11 03:43:20;;;;;;;8.60;4.20;;;15.00;91.40;;;;;;4991306;28;20538;-73
2023/10/11 03:45:56;;;;;;;9.98;4.57;;;15.00;91.40;;;;;;4989080;28;20434;-72
2023/10/11 03:48:21;;;;;;;9.40;4.85;;;14.90;91.80;;;;;;4989094;28;20076;-72
2023/10/11 03:50:47;;;;;;;9.85;4.75;;;15.00;91.20;;;;;;4988011;28;20058;-72
2023/10/11 03:53:14;;;;;;;13.23;5.03;;;15.00;91.20;;;;;;4988161;28;20049;-74
2023/10/11 03:55:45;;;;;;;9.38;4.30;;;15.00;91.50;;;;;;4984825;28;20486;-73
2023/10/11 03:58:11;;;;;;;;;;;15.00;91.10;;;;;;4982884;28;20411;-75
2023/10/11 04:00:46;;;;;;;10.82;4.75;;;15.00;91.20;;;;;;4988297;28;19968;-72
2023/10/11 04:03:14;;;;;;;9.90;4.80;;;14.90;91.70;;;;;;4986540;28;20295;-74
2023/10/11 04:05:40;;;;;;;10.15;4.80;;;14.80;91.90;;;;;;4981261;28;20082;-72
2023/10/11 04:08:08;;;;;;;8.32;4.88;;;15.00;91.40;;;;;;4978769;28;20027;-72
2023/10/11 04:10:42;;;;;;;10.65;4.28;;;14.90;91.70;;;;;;4991314;28;20077;-73
2023/10/11 04:13:09;;;;;;;12.23;5.20;;;14.90;91.50;;;;;;4980032;28;20030;-75
2023/10/11 04:15:39;;;;;;;10.52;5.28;;;14.70;92.00;;;;;;4979685;28;20435;-73
2023/10/11 04:18:14;;;;;;;9.68;4.88;;;14.80;92.00;;;;;;4982593;28;20053;-74
2023/10/11 04:20:40;;;;;;;13.25;4.82;;;14.80;91.80;;;;;;4980884;28;20031;-73
2023/10/11 04:23:14;;;;;;;16.48;4.97;;;14.80;91.80;;;;;;4984637;28;20026;-74
2023/10/11 04:25:43;;;;;;;11.65;4.88;;;14.60;92.10;;;;;;4986512;28;20166;-72
2023/10/11 04:28:12;;;;;;;12.63;5.40;;;14.70;92.30;;;;;;4985358;28;20360;-69
2023/10/11 04:30:41;;;;;;;9.82;4.63;;;14.70;92.10;;;;;;4978485;28;20121;-69
2023/10/11 04:33:20;;;;;;;10.05;5.13;;;14.70;92.00;;;;;;4984464;28;20027;-70
2023/10/11 04:35:55;;;;;;;9.38;4.88;;;14.70;91.90;;;;;;4983067;28;20054;-70
2023/10/11 04:38:21;;;;;;;9.98;4.80;;;14.60;92.10;;;;;;4981509;28;20090;-69
2023/10/11 04:40:52;;;;;;;11.27;5.05;;;14.50;92.60;;;;;;4987164;28;20450;-71
2023/10/11 04:43:24;;;;;;;12.77;5.05;;;14.60;92.10;;;;;;4985914;28;20040;-70
2023/10/11 04:45:54;;;;;;;10.73;5.05;;;14.60;92.00;;;;;;4982155;28;20029;-69
2023/10/11 04:48:36;;;;;;;10.55;5.18;;;14.70;91.70;;;;;;4984242;28;20043;-71
2023/10/11 04:53:56;;;;;;;11.88;5.10;;;14.60;91.70;;;;;;4985355;28;20532;-72
2023/10/11 04:56:52;;;;;;;8.45;4.70;;;14.50;92.10;;;;;;4988939;28;20036;-71
2023/10/11 04:59:25;;;;;;;8.68;4.70;;;14.60;91.60;;;;;;4976985;28;20137;-68
2023/10/11 05:04:27;;;;;;;8.57;4.35;;;14.70;91.10;;;;;;4980924;28;20038;-71
2023/10/11 05:06:54;;;;;;;10.32;4.45;;;14.80;90.90;;;;;;4975729;28;20034;-68
2023/10/11 05:11:50;;;;;;;9.52;4.78;;;14.70;91.00;;;;;;4985521;28;20034;-69
2023/10/11 05:19:46;;;;;;;11.50;4.95;;;14.60;90.80;;;;;;4982402;28;20045;-69
2023/10/11 05:32:54;;;;;;;9.15;4.53;;;14.60;91.30;;;;;;4983702;28;20045;-69
2023/10/11 05:51:31;;;;;;;8.73;4.50;;;14.40;91.30;;;;;;4987222;28;20037;-68
2023/10/11 05:53:59;;;;;;;9.30;4.47;;;14.40;91.40;;;;;;4983418;28;20384;-69
2023/10/11 05:56:25;;;;;;;12.52;4.65;;;14.40;91.50;;;;;;4979721;28;20030;-69
2023/10/11 05:58:53;;;;;;;8.63;4.53;;;14.40;91.20;;;;;;4979382;28;20034;-69
2023/10/11 06:01:22;;;;;;;8.23;4.50;;;14.40;91.30;;;;;;4980434;28;20030;-70
2023/10/11 06:03:51;;;;;;;10.35;4.68;;;14.40;91.30;;;;;;4984462;28;20066;-68
2023/10/11 06:09:01;;;;;;;7.90;4.82;;;14.40;91.10;;;;;;4985274;28;20514;-68
2023/10/11 06:11:29;;;;;;;10.93;4.70;;;14.50;91.00;;;;;;4989164;28;20026;-69
2023/10/11 06:13:55;;;;;;;11.10;4.70;;;14.40;91.20;;;;;;4979950;28;20082;-70
2023/10/11 06:16:22;;;;;;;11.05;4.22;;;14.50;91.20;;;;;;4984635;28;20117;-68
2023/10/11 06:18:57;;;;;;;11.93;4.28;;;14.50;91.30;;;;;;4988826;28;20037;-71
2023/10/11 06:21:30;;;;;;;10.30;4.50;;;14.50;91.00;;;;;;4978891;28;20391;-67
2023/10/11 06:24:05;;;;;;;10.73;4.30;;;14.60;90.60;;;;;;4988935;28;20676;-70
2023/10/11 06:29:04;;;;;;;9.20;4.20;;;14.60;90.30;;;;;;4978376;28;20117;-68
2023/10/11 06:31:34;;;;;;;11.45;4.40;;;14.60;90.50;;;;;;4987271;28;20117;-69
2023/10/11 06:34:03;;;;;;;9.23;4.20;;;14.70;90.20;;;;;;4989394;28;20029;-69
2023/10/11 06:36:30;;;;;;;8.57;4.40;;;14.60;90.40;;;;;;4986325;28;20431;-68
2023/10/11 06:38:56;;;;;;;8.48;4.60;;;14.70;90.20;;;;;;4991355;28;20146;-68
2023/10/11 06:41:37;;;;;;;10.13;4.10;;;14.70;90.10;;;;;;4986992;28;20113;-69
2023/10/11 06:44:04;;;;;;;13.15;4.63;;;14.80;90.00;;;;;;4982240;28;20440;-70
2023/10/11 06:46:30;;;;;;;9.30;4.28;;;14.80;90.00;;;;;;4984863;28;20085;-72
2023/10/11 06:48:55;;;;;;;9.68;4.28;;;14.80;89.90;;;;;;4991382;28;20034;-68
2023/10/11 06:51:22;;;;;;;10.63;4.28;;;14.90;89.80;;;;;;4990989;28;20034;-69
2023/10/11 06:53:47;;;;;;;9.02;4.65;;;15.00;89.60;;;;;;4985577;28;20031;-69
2023/10/11 06:56:16;;;;;;;7.55;4.18;;;15.00;89.40;;;;;;4990694;28;20140;-68
2023/10/11 06:58:43;;;;;;;8.55;3.92;;;15.10;89.30;;;;;;4985720;28;20031;-68
2023/10/11 07:01:10;;;;;;;7.32;4.50;;;15.20;88.60;;;;;;4986233;28;20092;-71
2023/10/11 07:03:38;;;;;;;10.00;4.43;;;15.20;89.00;;;;;;4987301;28;20089;-69
2023/10/11 07:06:11;;;;;;;8.00;4.53;;;15.30;88.80;;;;;;4991902;28;20030;-67
2023/10/11 07:08:48;;;;;;;9.32;4.22;;;15.40;88.60;;;;;;4992960;28;20499;-67
2023/10/11 07:11:25;;;;;;;7.95;4.13;;;15.40;88.30;;;;;;4991983;28;20026;-68
2023/10/11 07:14:01;;;;;;;9.82;4.03;;;15.40;88.30;;;;;;4987244;28;20022;-67
2023/10/11 07:16:28;;;;;;;8.00;4.03;;;15.40;88.30;;;;;;4982811;28;20035;-70
2023/10/11 07:18:55;;;;;;;8.65;3.97;;;15.50;88.20;;;;;;4992743;28;20434;-67
2023/10/11 07:21:25;;;;;;;8.40;3.90;;;15.50;88.40;;;;;;4988954;28;20058;-67
2023/10/11 07:26:23;;;;;;;12.32;4.40;;;15.60;87.70;;;;;;4985822;28;20050;-66
2023/10/11 07:28:53;;;;;;;9.90;3.63;;;15.70;87.00;;;;;;4989111;28;20034;-67
2023/10/11 07:31:32;;;;;;;10.85;3.88;;;15.90;86.90;;;;;;4987327;28;20579;-67
2023/10/11 07:34:09;;;;;;;9.57;3.88;;;15.90;86.90;;;;;;4984668;28;20026;-66
2023/10/11 07:36:39;;;;;;;7.50;3.95;;;15.90;87.10;;;;;;4987196;28;20026;-67
2023/10/11 07:41:49;;;;;;;12.70;4.55;;;16.00;86.80;;;;;;4981363;28;20121;-67
2023/10/11 07:44:18;;;;;;;7.85;4.10;;;16.10;86.60;;;;;;4987437;28;20740;-67
2023/10/11 07:46:48;;;;;;;7.00;3.70;;;16.30;86.40;;;;;;4984414;28;20038;-67
2023/10/11 07:49:23;;;;;;;11.73;4.20;;;16.30;85.50;;;;;;4988331;28;20037;-68
2023/10/11 07:51:52;;;;;;;13.35;4.85;;;16.40;85.50;;;;;;4985482;28;20152;-67
2023/10/11 07:54:21;;;;;;;7.82;3.85;;;16.40;86.10;;;;;;4987317;28;20031;-67
2023/10/11 07:56:55;;;;;;;10.63;4.65;;;16.40;86.10;;;;;;4985152;28;20033;-67
2023/10/11 07:59:24;;;;;;;11.15;4.07;;;16.30;86.40;;;;;;4977986;28;20030;-67
2023/10/11 08:01:53;;;;;;;11.38;4.32;;;16.30;85.80;;;;;;4985444;28;20031;-67
2023/10/11 08:04:22;;;;;;;10.77;4.20;;;16.30;86.10;;;;;;4983676;28;20042;-66
2023/10/11 08:06:59;;;;;;;9.77;4.28;;;16.30;86.20;;;;;;4985313;28;20026;-67
2023/10/11 08:09:26;;;;;;;11.10;4.38;;;16.30;86.50;;;;;;4991249;28;20030;-67
2023/10/11 08:11:59;;;;;;;9.63;4.38;;;16.40;86.40;;;;;;4984076;28;20023;-69
2023/10/11 08:14:32;;;;;;;10.00;4.43;;;16.40;86.40;;;;;;4982611;28;20073;-67
2023/10/11 08:16:59;;;;;;;10.90;4.50;;;16.40;86.20;;;;;;4988115;28;20029;-67
2023/10/11 08:19:25;;;;;;;9.25;4.05;;;16.40;86.20;;;;;;4989286;28;20394;-66
2023/10/11 08:21:57;;;;;;;8.20;4.07;;;16.40;86.50;;;;;;4985786;28;20046;-67
2023/10/11 08:24:27;;;;;;;9.07;4.38;;;16.50;85.90;;;;;;4982496;28;20390;-67
2023/10/11 08:26:54;;;;;;;12.02;4.50;;;16.60;85.80;;;;;;4987966;28;20483;-67
2023/10/11 08:29:29;;;;;;;13.40;5.35;;;16.60;86.00;;;;;;4978037;28;20047;-67
2023/10/11 08:31:57;;;;;;;9.50;4.55;;;16.70;85.50;;;;;;4985119;28;20045;-67
2023/10/11 08:34:25;;;;;;;8.20;4.43;;;16.80;85.70;;;;;;4988589;28;20116;-67
2023/10/11 08:36:52;;;;;;;8.80;4.70;;;16.80;85.70;;;;;;4980182;28;20030;-66
2023/10/11 08:39:21;;;;;;;10.18;4.25;;;16.90;86.00;;;;;;4991034;28;20051;-69
2023/10/11 08:41:46;;;;;;;11.05;4.72;;;16.90;85.80;;;;;;4987440;28;20019;-68
2023/10/11 08:44:20;;;;;;;13.57;4.78;;;17.00;85.30;;;;;;4979128;28;20046;-67
2023/10/11 08:46:49;;;;;;;9.68;4.63;;;17.00;85.60;;;;;;4983988;28;20030;-67
2023/10/11 08:49:14;;;;;;;12.52;4.18;;;17.00;85.50;;;;;;4989817;28;20034;-68
2023/10/11 08:51:41;;;;;;;11.32;4.70;;;16.90;85.50;;;;;;4989029;28;20692;-67
2023/10/11 08:54:11;;;;;;;12.27;4.53;;;17.20;85.10;;;;;;4990447;28;20089;-67
2023/10/11 08:56:42;;;;;;;15.18;4.88;;;17.40;84.70;;;;;;4989817;28;20116;-66
2023/10/11 08:59:14;;;;;;;10.93;4.88;;;17.40;83.70;;;;;;4985561;28;20042;-67
2023/10/11 09:01:41;;;;;;;12.82;4.40;;;17.50;84.20;;;;;;4990075;28;20124;-67
2023/10/11 09:04:16;;;;;;;7.85;4.45;;;17.60;84.00;;;;;;4985118;28;20042;-67
2023/10/11 09:06:46;;;;;;;11.02;4.55;;;17.70;84.20;;;;;;4986828;28;20448;-67
2023/10/11 09:09:41;;;;;;;9.68;4.32;;;18.00;83.90;;;;;;4985096;28;20498;-67
2023/10/11 09:12:23;;;;;;;11.48;4.63;;;18.00;83.80;;;;;;4989204;28;20471;-68
2023/10/11 09:14:59;;;;;;;9.05;4.40;;;18.00;83.70;;;;;;4983294;28;20443;-67
2023/10/11 09:17:27;;;;;;;12.85;4.50;;;18.10;83.60;;;;;;4983119;28;20042;-68
2023/10/11 09:19:58;;;;;;;10.32;4.30;;;18.00;83.60;;;;;;4982594;28;20093;-68
2023/10/11 09:22:24;;;;;;;11.75;5.10;;;18.10;83.80;;;;;;4983434;28;20030;-67
2023/10/11 09:25:08;;;;;;;9.20;4.57;;;18.10;82.60;;;;;;4986344;28;20046;-66
2023/10/11 09:27:53;;;;;;;9.43;4.35;;;18.20;82.90;;;;;;4985558;28;20113;-66
2023/10/11 09:30:20;;;;;;;9.73;4.57;;;18.10;82.80;;;;;;4984100;28;20034;-67
2023/10/11 09:32:51;;;;;;;8.38;4.38;;;18.20;83.70;;;;;;4979974;28;20659;-67
2023/10/11 09:35:26;;;;;;;10.00;4.60;;;18.20;82.90;;;;;;4981819;28;20138;-67
2023/10/11 09:37:53;;;;;;;10.80;4.55;;;18.40;83.80;;;;;;4982271;28;20022;-66
2023/10/11 09:40:25;;;;;;;10.85;4.47;;;18.40;83.20;;;;;;4980423;28;20026;-67
2023/10/11 09:42:56;;;;;;;10.30;4.35;;;18.30;82.50;;;;;;4987480;28;20030;-66
2023/10/11 09:45:25;;;;;;;10.95;5.10;;;18.30;83.50;;;;;;4977425;28;20124;-66
2023/10/11 09:47:54;;;;;;;13.15;4.38;;;18.10;82.90;;;;;;4983402;28;20034;-67
2023/10/11 09:50:24;;;;;;;11.55;4.88;;;18.10;83.10;;;;;;4978641;28;20543;-66
2023/10/11 09:52:52;;;;;;;9.63;4.65;;;18.20;83.40;;;;;;4984491;28;20030;-70
2023/10/11 09:55:31;;;;;;;9.90;4.70;;;18.10;83.10;;;;;;4977189;28;20057;-67
2023/10/11 09:58:11;;;;;;;10.98;4.63;;;18.30;83.20;;;;;;4984932;28;20038;-67
2023/10/11 10:00:47;;;;;;;12.20;5.15;;;18.20;82.90;;;;;;4984195;28;20030;-67
2023/10/11 10:03:13;;;;;;;9.45;4.60;;;18.40;83.40;;;;;;4980505;28;20038;-68
2023/10/11 10:06:04;;;;;;;10.07;4.13;;;18.40;83.60;;;;;;4982449;28;20042;-67
2023/10/11 10:08:29;;;;;;;10.32;5.25;;;18.40;83.20;;;;;;4985832;28;20517;-67
2023/10/11 10:10:55;;;;;;;8.82;4.40;;;18.30;83.20;;;;;;4982961;28;20042;-67
2023/10/11 10:13:25;;;;;;;9.13;4.60;;;18.30;83.50;;;;;;4981075;28;20022;-67
2023/10/11 10:15:53;;;;;;;13.10;5.20;;;18.40;84.10;;;;;;4986707;28;20089;-66
2023/10/11 10:18:19;;;;;;;10.15;4.47;;;18.40;83.80;;;;;;4980454;28;20035;-67
2023/10/11 10:20:47;;;;;;;10.27;4.72;;;18.40;84.20;;;;;;4984809;28;20359;-67
2023/10/11 10:23:15;;;;;;;9.48;4.47;;;18.50;83.90;;;;;;4987519;28;20104;-66
2023/10/11 10:26:03;;;;;;;9.45;4.40;;;18.50;83.90;;;;;;4990546;28;20052;-66
2023/10/11 10:28:32;;;;;;;8.30;4.57;;;18.30;83.50;;;;;;4989424;28;20481;-67
2023/10/11 10:31:21;;;;;;;10.13;5.07;;;18.20;84.00;;;;;;4982136;28;20027;-67
2023/10/11 10:34:05;;;;;;;11.32;4.53;;;18.20;84.30;;;;;;4985284;28;20118;-67
2023/10/11 10:36:31;;;;;;;13.25;5.03;;;18.20;84.60;;;;;;4982959;28;20102;-67
2023/10/11 10:41:39;;;;;;;11.90;4.65;;;17.90;85.10;;;;;;4972610;28;20050;-68
2023/10/11 10:44:11;;;;;;;9.43;4.68;;;18.00;85.10;;;;;;4971896;28;20030;-67
2023/10/11 10:46:51;;;;;;;9.43;4.85;;;18.00;84.90;;;;;;4981178;28;20039;-66
2023/10/11 10:49:18;;;;;;;11.13;4.30;;;17.80;85.10;;;;;;4985814;28;20506;-66
2023/10/11 10:51:47;;;;;;;11.00;5.13;;;17.80;85.50;;;;;;4983852;28;20539;-67
2023/10/11 10:54:13;;;;;;;10.13;4.65;;;17.70;85.70;;;;;;4979318;28;20636;-68
2023/10/11 10:56:46;;;;;;;12.75;5.22;;;17.70;85.80;;;;;;4985476;28;20137;-68
2023/10/11 10:59:14;;;;;;;14.63;5.38;;;17.70;86.20;;;;;;4976735;28;20038;-67
2023/10/11 11:01:39;;;;;;;12.68;5.07;;;17.60;86.50;;;;;;4984693;28;20032;-67
2023/10/11 11:04:07;;;;;;;12.90;5.35;;;17.60;86.70;;;;;;4990765;28;20515;-67
2023/10/11 11:06:49;;;;;;;10.80;5.35;;;17.60;87.10;;;;;;4985800;28;20045;-67
2023/10/11 11:09:25;;;;;;;15.43;6.75;;;17.50;87.10;;;;;;4988684;28;20039;-70
2023/10/11 11:11:54;;;;;;;11.43;6.15;;;17.30;88.50;;;;;;4987745;28;20034;-68
2023/10/11 11:14:20;;;;;;;13.07;6.18;;;17.20;88.90;;;;;;4979332;28;20105;-67
2023/10/11 11:16:56;;;;;;;11.00;6.05;;;17.10;89.60;;;;;;4991905;28;20045;-67
2023/10/11 11:19:34;;;;;;;13.45;6.63;;;17.00;90.50;;;;;;4976960;28;20133;-67
2023/10/11 11:22:15;;;;;;;13.75;7.03;;;16.90;91.00;;;;;;4987540;28;20023;-67
2023/10/11 11:24:44;;;;;;;15.55;6.03;;;17.00;90.80;;;;;;4988620;28;20027;-67
2023/10/11 11:27:26;;;;;;;10.95;6.32;;;17.00;90.70;;;;;;4985910;28;20038;-67
2023/10/11 11:29:53;;;;;;;13.02;6.82;;;17.00;91.00;;;;;;4977452;28;20113;-67
2023/10/11 11:32:36;;;;;;;14.18;7.07;;;17.00;90.90;;;;;;4982469;28;20113;-68
2023/10/11 11:35:04;;;;;;;12.18;6.15;;;17.10;90.60;;;;;;4986730;28;20030;-67
2023/10/11 11:37:31;;;;;;;12.63;6.80;;;17.20;90.50;;;;;;4991648;28;20030;-68
2023/10/11 11:42:47;;;;;;;12.95;6.15;;;17.10;90.50;;;;;;4991281;28;20501;-67
2023/10/11 11:45:14;;;;;;;16.27;6.88;;;17.10;90.50;;;;;;4980961;28;20025;-67
2023/10/11 11:47:50;;;;;;;10.98;6.28;;;17.10;90.40;;;;;;4983827;28;20041;-67
2023/10/11 11:50:18;;;;;;;13.88;6.30;;;17.20;90.50;;;;;;4985910;28;20445;-67
2023/10/11 11:52:44;;;;;;;11.50;6.20;;;17.30;90.30;;;;;;4985374;28;20408;-68
2023/10/11 11:55:10;;;;;;;11.52;6.38;;;17.30;90.50;;;;;;4981493;28;20386;-67
2023/10/11 11:57:35;;;;;;;12.25;6.13;;;17.30;90.40;;;;;;4987214;28;20042;-68
2023/10/11 12:00:19;;;;;;;16.33;6.97;;;17.40;90.30;;;;;;4978048;28;20038;-68
2023/10/11 12:02:45;;;;;;;10.07;6.20;;;17.30;90.20;;;;;;4977708;28;20364;-68
2023/10/11 12:05:11;;;;;;;13.07;6.93;;;17.40;90.50;;;;;;4984616;28;20042;-68
2023/10/11 12:07:36;;;;;;;12.02;6.30;;;17.40;90.40;;;;;;4987859;28;20426;-69
2023/10/11 12:10:10;;;;;;;10.88;6.50;;;17.40;90.20;;;;;;4979756;28;20043;-68
2023/10/11 12:12:36;;;;;;;12.40;6.18;;;17.50;90.10;;;;;;4982609;28;20034;-67
2023/10/11 12:15:03;;;;;;;14.40;6.32;;;17.50;89.90;;;;;;4987721;28;20467;-68
2023/10/11 12:17:29;;;;;;;9.90;6.68;;;17.50;90.20;;;;;;4982219;28;20058;-67
2023/10/11 12:19:54;;;;;;;11.15;6.28;;;17.50;90.00;;;;;;4981564;28;20069;-69
2023/10/11 12:22:22;;;;;;;10.85;5.82;;;17.60;89.70;;;;;;4985630;28;20031;-68
2023/10/11 12:24:48;;;;;;;9.65;5.35;;;17.60;89.60;;;;;;5005784;28;20045;-68
2023/10/11 12:27:13;;;;;;;11.20;6.53;;;17.70;89.50;;;;;;4986150;28;20113;-68
2023/10/11 12:29:39;;;;;;;13.85;5.68;;;17.80;89.40;;;;;;4987864;28;20585;-68
2023/10/11 12:32:07;;;;;;;10.40;5.63;;;17.80;89.30;;;;;;4989947;28;20113;-71
2023/10/11 12:34:32;;;;;;;12.32;5.60;;;17.80;89.20;;;;;;4980525;28;20315;-71
2023/10/11 12:37:00;;;;;;;9.93;5.03;;;17.80;89.10;;;;;;4979930;28;20129;-68
2023/10/11 12:39:29;;;;;;;14.13;6.30;;;17.80;89.40;;;;;;4986683;28;20039;-68
2023/10/11 12:41:59;;;;;;;11.40;6.25;;;17.70;89.70;;;;;;4982273;28;20192;-68
2023/10/11 12:44:24;;;;;;;11.45;5.80;;;17.70;89.80;;;;;;4983861;28;20109;-68
2023/10/11 12:46:51;;;;;;;12.77;5.75;;;17.60;90.10;;;;;;4985001;28;20114;-68
2023/10/11 12:49:20;;;;;;;12.50;6.55;;;17.60;90.10;;;;;;4987257;28;20034;-68
2023/10/11 12:51:46;;;;;;;13.77;6.13;;;17.60;90.20;;;;;;4984793;28;20041;-68
2023/10/11 12:54:15;;;;;;;8.80;5.47;;;17.70;90.30;;;;;;4981599;28;20534;-69
2023/10/11 12:56:45;;;;;;;10.23;5.20;;;17.90;90.00;;;;;;4980628;28;20037;-68
2023/10/11 12:59:12;;;;;;;9.07;5.32;;;18.00;89.80;;;;;;4982077;28;20046;-69
2023/10/11 13:01:52;;;;;;;8.20;5.35;;;17.90;89.20;;;;;;4986649;28;20033;-68
2023/10/11 13:04:23;;;;;;;10.13;5.40;;;18.00;89.40;;;;;;4983874;28;20038;-67
2023/10/11 13:06:49;;;;;;;10.13;5.28;;;18.00;89.40;;;;;;4982771;28;20386;-67
2023/10/11 13:09:27;;;;;;;10.95;5.55;;;18.00;89.10;;;;;;4978839;28;20073;-67
2023/10/11 13:11:56;;;;;;;12.32;5.85;;;18.10;89.60;;;;;;4988097;28;20030;-68
2023/10/11 13:14:22;;;;;;;11.50;5.90;;;18.30;88.90;;;;;;4985457;28;20030;-68
2023/10/11 13:17:12;;;;;;;9.40;5.30;;;18.40;88.00;;;;;;4976554;28;20054;-67
2023/10/11 13:19:37;;;;;;;8.57;5.10;;;18.50;88.40;;;;;;4985278;28;20121;-68
2023/10/11 13:22:09;;;;;;;11.20;5.82;;;18.50;88.00;;;;;;4987680;28;20117;-68
2023/10/11 13:24:35;;;;;;;10.75;5.32;;;18.30;88.40;;;;;;4984058;28;20398;-69
2023/10/11 13:27:03;;;;;;;11.65;5.47;;;18.30;88.50;;;;;;4984964;28;20515;-69
2023/10/11 13:29:28;;;;;;;13.45;5.50;;;18.20;88.80;;;;;;4984988;28;20085;-67
2023/10/11 13:31:56;;;;;;;11.27;5.32;;;18.20;88.90;;;;;;4980334;28;20034;-68
2023/10/11 13:34:28;;;;;;;8.88;5.25;;;18.10;89.40;;;;;;4979741;28;20412;-70
2023/10/11 13:36:57;;;;;;;9.05;5.18;;;18.00;89.60;;;;;;4986965;28;20040;-69
2023/10/11 13:39:26;;;;;;;10.68;5.70;;;18.00;89.60;;;;;;4982903;28;20030;-68
2023/10/11 13:42:04;;;;;;;8.60;5.28;;;17.90;89.60;;;;;;4981027;28;20518;-68
2023/10/11 13:44:33;;;;;;;11.65;4.97;;;17.90;89.70;;;;;;4977763;28;20105;-68
2023/10/11 13:46:58;;;;;;;11.10;5.70;;;17.90;89.80;;;;;;4983014;28;20128;-68
2023/10/11 13:49:25;;;;;;;8.85;5.43;;;17.80;89.80;;;;;;4976376;28;20113;-68
2023/10/11 13:51:58;;;;;;;8.05;4.38;;;17.80;89.70;;;;;;4980976;28;20138;-68
2023/10/11 13:54:42;;;;;;;10.00;5.15;;;17.80;90.00;;;;;;4981574;28;20031;-68